Time;durP1;ratioP1;P1;durP2;ratioP2;P2;SDS_P1;SDS_P2;PMS_P1;PMS_P2;Temp;Humidity;BMP_temperature;BMP_pressure;BME280_temperature;BME280_humidity;BME280_pressure;Samples;Min_cycle;Max_cycle;Signal;HPM_P1;HPM_P2
2022/10/19 00:02:24;;;;;;;8.73;5.47;;;;;;;11.38;55.17;95254.31;5076173;28;20183;-79
2022/10/19 00:04:51;;;;;;;8.80;5.73;;;;;;;11.30;55.21;95244.72;5078148;28;20197;-80
2022/10/19 00:07:18;;;;;;;6.97;5.90;;;;;;;11.35;55.29;95251.19;5078438;28;20198;-80
2022/10/19 00:09:44;;;;;;;9.67;5.63;;;;;;;11.29;55.33;95249.97;5089653;28;20242;-80
2022/10/19 00:12:11;;;;;;;8.23;6.30;;;;;;;11.31;55.41;95250.63;5082157;28;20193;-80
2022/10/19 00:14:40;;;;;;;8.07;5.77;;;;;;;11.25;55.43;95244.28;5079803;28;20213;-78
2022/10/19 00:17:06;;;;;;;9.17;5.93;;;;;;;11.28;55.47;95244.03;5078112;28;20190;-78
2022/10/19 00:19:33;;;;;;;8.10;5.40;;;;;;;11.28;55.31;95243.25;5077254;28;20222;-79
2022/10/19 00:22:00;;;;;;;8.70;5.13;;;;;;;11.25;55.23;95239.16;5079123;28;20198;-79
2022/10/19 00:24:27;;;;;;;8.17;5.57;;;;;;;11.23;55.25;95230.81;5072888;28;20656;-80
2022/10/19 00:26:54;;;;;;;7.83;5.77;;;;;;;11.16;55.42;95221.22;5072052;28;20673;-79
2022/10/19 00:29:22;;;;;;;9.23;5.27;;;;;;;11.18;55.32;95221.88;5072238;28;20182;-79
2022/10/19 00:31:51;;;;;;;9.33;5.80;;;;;;;11.04;55.44;95195.69;5072687;28;20710;-81
2022/10/19 00:34:18;;;;;;;9.50;6.30;;;;;;;11.16;55.27;95216.09;5072213;28;20190;-80
2022/10/19 00:36:45;;;;;;;8.40;5.63;;;;;;;11.09;55.48;95197.06;5071954;28;20183;-78
2022/10/19 00:39:14;;;;;;;9.87;5.73;;;;;;;11.15;55.51;95210.16;5072146;28;20191;-78
2022/10/19 00:41:41;;;;;;;8.93;5.53;;;;;;;11.14;55.42;95205.16;5071838;28;20190;-79
2022/10/19 00:44:41;;;;;;;10.27;5.50;;;;;;;11.13;55.38;95204.34;5071682;28;20193;-78
2022/10/19 00:47:09;;;;;;;11.67;6.00;;;;;;;11.11;55.62;95200.31;5029345;28;20227;-79
2022/10/19 00:49:40;;;;;;;8.97;5.50;;;;;;;11.09;55.49;95194.50;5029244;28;20622;-79
2022/10/19 00:52:13;;;;;;;7.23;5.60;;;;;;;11.08;55.49;95196.25;5029608;28;20215;-80
2022/10/19 00:54:41;;;;;;;6.97;5.23;;;;;;;11.07;55.64;95183.59;5029770;28;20235;-80
2022/10/19 00:57:09;;;;;;;7.10;5.17;;;;;;;11.04;55.12;95192.31;5029645;28;20207;-81
2022/10/19 00:59:38;;;;;;;8.17;5.63;;;;;;;11.02;55.43;95189.91;5029565;28;20524;-79
2022/10/19 01:02:06;;;;;;;10.07;5.80;;;;;;;10.94;55.34;95171.00;5029493;28;20187;-81
2022/10/19 01:04:37;;;;;;;9.40;5.70;;;;;;;11.00;55.50;95170.50;5028762;28;20191;-84
2022/10/19 01:07:06;;;;;;;6.40;5.07;;;;;;;10.99;55.63;95171.44;5029289;28;20278;-80
2022/10/19 01:09:34;;;;;;;6.47;5.20;;;;;;;10.97;55.71;95169.00;5029559;28;20191;-80
2022/10/19 01:12:07;;;;;;;8.37;5.23;;;;;;;10.94;55.68;95160.78;5029384;28;20203;-83
2022/10/19 01:14:46;;;;;;;8.20;5.50;;;;;;;10.93;55.76;95159.16;5029100;28;20188;-79
2022/10/19 01:17:23;;;;;;;7.57;4.93;;;;;;;10.88;55.86;95145.91;5029001;28;20191;-80
2022/10/19 01:20:32;;;;;;;7.60;5.23;;;;;;;10.89;55.87;95155.25;5028654;28;20717;-82
2022/10/19 01:23:18;;;;;;;6.27;4.97;;;;;;;10.80;55.90;95137.16;5009735;28;20208;-85
2022/10/19 01:25:54;;;;;;;6.13;4.70;;;;;;;10.76;56.21;95140.91;5029339;28;20191;-80
2022/10/19 01:28:39;;;;;;;10.30;4.77;;;;;;;10.80;55.89;95139.72;5029455;28;20183;-81
2022/10/19 01:31:17;;;;;;;9.93;5.37;;;;;;;10.81;55.83;95148.19;5031518;28;20183;-79
2022/10/19 01:33:51;;;;;;;7.37;5.00;;;;;;;10.79;56.04;95147.50;5029615;28;20198;-79
2022/10/19 01:36:24;;;;;;;7.00;5.37;;;;;;;10.76;56.15;95143.47;5029076;28;20191;-82
2022/10/19 01:38:56;;;;;;;6.33;4.50;;;;;;;10.75;55.85;95135.91;5029221;28;20566;-86
2022/10/19 01:41:30;;;;;;;9.40;5.20;;;;;;;10.73;56.19;95130.91;5029574;28;20195;-80
2022/10/19 01:44:03;;;;;;;6.83;4.80;;;;;;;10.72;56.15;95136.97;5029702;28;20184;-78
2022/10/19 01:46:36;;;;;;;6.37;4.63;;;;;;;10.59;56.35;95117.66;5030020;28;20362;-78
2022/10/19 01:49:09;;;;;;;6.70;5.20;;;;;;;10.68;56.32;95138.16;5028910;28;20342;-80
2022/10/19 01:51:42;;;;;;;7.67;4.70;;;;;;;10.64;56.27;95125.75;5028355;28;20286;-80
2022/10/19 01:54:13;;;;;;;6.53;4.47;;;;;;;10.60;56.34;95120.09;5028607;28;20294;-79
2022/10/19 01:56:42;;;;;;;6.10;4.53;;;;;;;10.64;56.29;95128.31;5027926;28;20195;-78
2022/10/19 01:59:11;;;;;;;6.00;4.20;;;;;;;10.59;56.33;95123.59;5047108;28;20202;-79
2022/10/19 02:01:44;;;;;;;5.80;4.33;;;;;;;10.58;56.46;95123.69;5070960;28;20653;-83
2022/10/19 02:04:14;;;;;;;6.13;4.57;;;;;;;10.48;56.51;95110.88;5070964;28;20194;-80
2022/10/19 02:06:41;;;;;;;7.33;4.80;;;;;;;10.58;56.56;95127.09;5071268;28;20213;-79
2022/10/19 02:09:08;;;;;;;7.50;4.63;;;;;;;10.57;56.61;95122.88;5076652;28;20194;-79
2022/10/19 02:11:37;;;;;;;6.23;4.73;;;;;;;10.55;56.49;95129.91;5080791;28;20209;-80
2022/10/19 02:14:09;;;;;;;6.33;4.77;;;;;;;10.50;56.56;95119.25;5077691;28;20205;-77
2022/10/19 02:16:43;;;;;;;6.33;4.70;;;;;;;10.52;56.75;95122.47;5079608;28;20558;-80
2022/10/19 02:19:12;;;;;;;6.93;4.17;;;;;;;10.51;56.62;95123.41;5074283;28;20221;-80
2022/10/19 02:21:39;;;;;;;5.17;4.10;;;;;;;10.49;56.66;95115.03;5076442;28;20189;-79
2022/10/19 02:24:07;;;;;;;6.27;4.23;;;;;;;10.48;56.71;95108.31;5075777;28;20288;-79
2022/10/19 02:26:34;;;;;;;4.97;4.03;;;;;;;10.46;56.85;95120.44;5074464;28;20568;-80
2022/10/19 02:29:01;;;;;;;6.63;4.20;;;;;;;10.45;56.78;95111.16;5076841;28;20199;-78
2022/10/19 02:31:28;;;;;;;7.60;4.20;;;;;;;10.26;56.74;95097.28;5077054;28;20195;-78
2022/10/19 02:33:57;;;;;;;7.17;3.93;;;;;;;10.38;56.94;95110.81;5074191;28;20190;-78
2022/10/19 02:36:23;;;;;;;5.93;4.50;;;;;;;10.40;56.82;95111.50;5072003;28;20190;-81
2022/10/19 02:38:50;;;;;;;7.43;4.40;;;;;;;10.39;56.95;95114.19;5070628;28;20200;-81
2022/10/19 02:41:23;;;;;;;5.93;4.23;;;;;;;10.34;56.79;95114.56;5070770;28;20197;-79
2022/10/19 02:43:57;;;;;;;5.83;4.03;;;;;;;10.36;56.94;95122.91;5071923;28;20178;-78
2022/10/19 02:46:28;;;;;;;7.60;4.60;;;;;;;10.27;56.89;95116.00;5076170;28;20226;-78
2022/10/19 02:48:58;;;;;;;5.93;4.60;;;;;;;10.33;56.88;95123.19;5072950;28;20190;-79
2022/10/19 02:51:32;;;;;;;5.67;4.20;;;;;;;10.26;56.98;95107.53;5070986;28;20198;-78
2022/10/19 02:53:59;;;;;;;6.90;3.90;;;;;;;10.31;56.99;95117.38;5071356;28;20210;-79
2022/10/19 02:56:26;;;;;;;6.90;4.23;;;;;;;10.26;57.07;95104.97;5072109;28;20201;-78
2022/10/19 02:58:53;;;;;;;5.37;4.40;;;;;;;10.25;56.88;95110.22;5072746;28;20191;-79
2022/10/19 03:01:20;;;;;;;6.33;4.20;;;;;;;10.26;56.88;95106.72;5073554;28;20182;-78
2022/10/19 03:03:47;;;;;;;7.10;3.83;;;;;;;10.24;57.03;95103.44;5073224;28;20202;-80
2022/10/19 03:06:15;;;;;;;5.53;3.90;;;;;;;10.24;56.92;95108.56;5072827;28;20190;-80
2022/10/19 03:08:42;;;;;;;5.50;4.00;;;;;;;10.23;57.17;95106.91;5070318;28;20649;-81
2022/10/19 03:11:09;;;;;;;8.37;4.37;;;;;;;10.22;57.07;95105.31;5070784;28;20644;-79
2022/10/19 03:13:36;;;;;;;5.27;4.13;;;;;;;10.15;57.18;95101.66;5069903;28;20194;-81
2022/10/19 03:16:15;;;;;;;4.30;3.80;;;;;;;10.21;57.14;95114.72;5070493;28;20194;-79
2022/10/19 03:18:42;;;;;;;6.83;4.23;;;;;;;10.18;57.24;95109.84;5063566;28;20226;-80
2022/10/19 03:21:11;;;;;;;7.67;4.20;;;;;;;10.12;57.31;95112.91;5071389;28;20197;-81
2022/10/19 03:23:39;;;;;;;5.57;3.23;;;;;;;10.18;57.33;95119.28;5070860;28;20191;-78
2022/10/19 03:26:08;;;;;;;5.70;4.17;;;;;;;10.18;57.18;95122.63;5073424;28;20629;-79
2022/10/19 03:28:37;;;;;;;6.40;4.40;;;;;;;10.11;57.40;95101.09;5075211;28;20281;-79
2022/10/19 03:31:04;;;;;;;6.90;4.27;;;;;;;10.14;57.53;95105.94;5073655;28;20220;-83
2022/10/19 03:33:32;;;;;;;5.77;3.70;;;;;;;10.14;57.44;95107.69;5074883;28;20627;-79
2022/10/19 03:36:17;;;;;;;6.93;3.70;;;;;;;10.12;57.46;95100.16;5079070;28;20200;-78
2022/10/19 03:38:46;;;;;;;7.00;4.20;;;;;;;9.98;57.55;95090.25;5082737;28;20281;-78
2022/10/19 03:41:13;;;;;;;5.77;4.40;;;;;;;10.09;57.54;95105.50;5082684;28;20187;-82
2022/10/19 03:43:47;;;;;;;6.97;4.50;;;;;;;10.02;57.38;95084.75;5079275;28;20548;-77
2022/10/19 03:46:15;;;;;;;6.20;4.40;;;;;;;10.07;57.53;95098.91;5080095;28;20197;-80
2022/10/19 03:48:45;;;;;;;6.97;4.20;;;;;;;10.04;57.49;95095.66;5060864;28;20658;-78
2022/10/19 03:51:21;;;;;;;4.40;4.00;;;;;;;10.04;57.59;95097.41;5061305;28;20195;-78
2022/10/19 03:54:10;;;;;;;5.50;4.47;;;;;;;9.96;57.58;95087.78;5060045;28;20202;-78
2022/10/19 03:56:37;;;;;;;7.37;4.43;;;;;;;9.97;57.51;95092.00;5060950;28;20191;-82
2022/10/19 03:59:08;;;;;;;5.60;4.27;;;;;;;9.86;57.64;95074.16;5058275;28;20184;-81
2022/10/19 04:01:38;;;;;;;6.67;4.50;;;;;;;9.99;57.72;95094.41;5058397;28;20542;-80
2022/10/19 04:04:10;;;;;;;7.10;4.07;;;;;;;9.83;57.32;95073.59;5057077;28;20199;-81
2022/10/19 04:06:41;;;;;;;7.53;4.60;;;;;;;9.96;57.69;95100.56;5059109;28;20264;-82
2022/10/19 04:09:12;;;;;;;6.60;4.60;;;;;;;9.91;57.74;95092.47;5061207;28;20178;-78
2022/10/19 04:14:53;;;;;;;7.70;4.33;;;;;;;9.93;57.74;95095.72;5053519;28;20221;-82
2022/10/19 04:17:23;;;;;;;6.27;4.70;;;;;;;9.92;57.73;95090.72;5057179;28;20190;-81
2022/10/19 04:19:52;;;;;;;6.47;4.13;;;;;;;9.90;57.80;95085.75;5070148;28;20218;-80
2022/10/19 04:22:19;;;;;;;7.50;4.77;;;;;;;9.90;57.90;95090.84;5075995;28;20210;-79
2022/10/19 04:24:47;;;;;;;9.13;4.90;;;;;;;9.89;57.73;95084.13;5076187;28;20192;-82
2022/10/19 04:27:14;;;;;;;7.47;4.33;;;;;;;9.59;57.62;95031.22;5074497;28;20222;-78
2022/10/19 04:29:43;;;;;;;9.30;5.07;;;;;;;9.82;57.72;95065.13;5073983;28;20190;-78
2022/10/19 04:32:10;;;;;;;7.97;4.80;;;;;;;9.82;57.82;95072.78;5065747;28;20214;-80
2022/10/19 04:34:40;;;;;;;8.23;4.80;;;;;;;9.87;57.84;95074.97;5076414;28;20194;-82
2022/10/19 04:37:08;;;;;;;8.53;5.00;;;;;;;9.86;57.88;95073.34;5071856;28;20190;-82
2022/10/19 04:39:38;;;;;;;7.50;5.30;;;;;;;9.86;57.86;95076.72;5066675;28;20190;-81
2022/10/19 04:42:06;;;;;;;8.63;5.10;;;;;;;9.86;57.77;95073.34;5061302;28;20190;-78
2022/10/19 04:44:35;;;;;;;6.97;5.30;;;;;;;9.74;58.01;95050.41;5067364;28;20186;-80
2022/10/19 04:47:02;;;;;;;9.27;5.13;;;;;;;9.85;57.93;95074.28;5071372;28;20229;-82
2022/10/19 04:49:29;;;;;;;12.23;5.90;;;;;;;9.85;57.89;95080.19;5071190;28;20669;-82
2022/10/19 04:51:56;;;;;;;9.30;5.67;;;;;;;9.75;58.06;95061.44;5073064;28;20190;-81
2022/10/19 04:54:23;;;;;;;10.20;5.43;;;;;;;9.82;58.21;95075.31;5072809;28;20203;-83
2022/10/19 04:56:50;;;;;;;8.57;5.20;;;;;;;9.80;58.02;95075.47;5073006;28;20208;-85
2022/10/19 04:59:18;;;;;;;9.70;6.00;;;;;;;9.89;58.01;95088.44;5072413;28;20209;-85
2022/10/19 05:01:45;;;;;;;10.90;5.43;;;;;;;9.90;57.96;95088.31;5072199;28;20182;-80
2022/10/19 05:04:11;;;;;;;9.80;5.47;;;;;;;9.89;57.93;95073.09;5072900;28;20191;-84
2022/10/19 05:06:38;;;;;;;8.90;5.43;;;;;;;9.95;57.95;95075.97;5072958;28;20189;-88
2022/10/19 05:09:06;;;;;;;12.63;6.00;;;;;;;9.82;58.01;95049.78;5073708;28;20190;-81
2022/10/19 05:11:33;;;;;;;13.33;6.47;;;;;;;9.92;57.81;95060.88;5072436;28;20216;-79
2022/10/19 05:14:00;;;;;;;7.03;5.43;;;;;;;10.06;57.80;95077.66;5072180;28;20242;-81
2022/10/19 05:16:28;;;;;;;9.37;5.60;;;;;;;10.10;57.71;95076.44;5070879;28;20190;-84
2022/10/19 05:18:57;;;;;;;13.13;5.93;;;;;;;9.92;57.71;95029.41;5072484;28;20333;-83
2022/10/19 05:21:26;;;;;;;8.77;5.50;;;;;;;10.21;74.22;95043.16;5072359;28;20189;-83
2022/10/19 05:23:53;;;;;;;12.13;6.37;;;;;;;10.60;68.05;95066.38;5071797;28;20570;-81
2022/10/19 05:26:22;;;;;;;12.43;6.83;;;;;;;10.68;65.88;95061.44;5073149;28;20191;-84
2022/10/19 05:28:50;;;;;;;10.33;6.67;;;;;;;10.73;65.37;95050.81;5077751;28;20649;-82
2022/10/19 05:31:19;;;;;;;14.77;6.50;;;;;;;10.85;65.19;95065.13;5077487;28;20190;-83
2022/10/19 05:33:48;;;;;;;20.60;7.23;;;;;;;10.89;65.10;95063.94;5074134;28;20284;-84
2022/10/19 05:36:17;;;;;;;10.20;6.87;;;;;;;11.01;64.90;95069.72;5074737;28;20661;-83
2022/10/19 05:38:44;;;;;;;17.63;7.23;;;;;;;10.65;64.16;95002.06;5069413;28;20252;-82
2022/10/19 05:41:11;;;;;;;16.03;7.83;;;;;;;11.15;63.62;95077.06;5072968;28;20198;-82
2022/10/19 05:43:39;;;;;;;13.27;7.33;;;;;;;11.22;63.00;95079.88;5068649;28;20202;-82
2022/10/19 05:46:08;;;;;;;16.23;7.53;;;;;;;11.28;62.74;95076.81;5066998;28;20206;-83
2022/10/19 05:48:35;;;;;;;12.30;8.00;;;;;;;11.36;62.12;95079.53;5071429;28;20739;-83
2022/10/19 05:51:05;;;;;;;13.23;8.30;;;;;;;11.33;61.87;95064.44;5068177;28;20190;-84
2022/10/19 05:53:32;;;;;;;20.23;8.37;;;;;;;11.53;61.23;95078.88;5071899;28;20273;-83
2022/10/19 05:55:59;;;;;;;17.57;8.90;;;;;;;11.39;60.89;95037.47;5072551;28;20194;-83
2022/10/19 05:58:26;;;;;;;18.37;8.80;;;;;;;11.55;60.36;95050.56;5077798;28;20191;-83
2022/10/19 06:00:55;;;;;;;16.87;8.47;;;;;;;11.80;59.83;95062.81;5079372;28;20190;-85
2022/10/19 06:03:22;;;;;;;13.10;8.23;;;;;;;11.95;59.40;95064.97;5083241;28;20194;-84
2022/10/19 06:05:49;;;;;;;21.50;8.27;;;;;;;12.11;59.04;95069.56;5081721;28;20194;-82
2022/10/19 06:08:18;;;;;;;15.73;7.87;;;;;;;12.14;58.59;95059.03;5073678;28;20230;-85
2022/10/19 06:10:46;;;;;;;19.23;8.23;;;;;;;12.45;58.24;95086.09;5081804;28;20560;-82
2022/10/19 06:13:14;;;;;;;14.20;9.27;;;;;;;12.70;57.71;95091.56;5080403;28;20187;-81
2022/10/19 06:15:41;;;;;;;15.33;7.93;;;;;;;13.04;58.32;95092.63;5071070;28;20179;-84
2022/10/19 06:18:09;;;;;;;17.70;8.77;;;;;;;13.44;59.53;95067.53;5072023;28;20182;-81
2022/10/19 06:20:36;;;;;;;15.30;8.77;;;;;;;14.26;59.83;95085.25;5069990;28;20256;-80
2022/10/19 06:23:04;;;;;;;17.93;9.07;;;;;;;14.99;59.00;95092.59;5066818;28;20276;-82
2022/10/19 06:25:33;;;;;;;24.43;10.10;;;;;;;15.90;58.12;95106.56;5062960;28;20206;-82
2022/10/19 06:28:01;;;;;;;22.17;10.60;;;;;;;16.64;57.13;95089.25;5071677;28;20206;-83
2022/10/19 06:30:28;;;;;;;20.07;10.20;;;;;;;17.48;55.57;95093.75;5082805;28;20198;-82
2022/10/19 06:32:55;;;;;;;21.83;11.13;;;;;;;18.16;54.23;95065.53;5074575;28;20186;-83
2022/10/19 06:35:22;;;;;;;20.60;10.40;;;;;;;19.10;52.94;95086.63;5070592;28;20201;-82
2022/10/19 06:37:48;;;;;;;19.73;11.40;;;;;;;20.02;51.33;95108.41;5066812;28;20198;-79
2022/10/19 06:40:15;;;;;;;24.20;11.53;;;;;;;20.80;50.13;95106.63;5066773;28;20190;-79
2022/10/19 06:42:43;;;;;;;22.93;11.13;;;;;;;21.44;48.79;95091.78;5070234;28;20190;-80
2022/10/19 06:45:11;;;;;;;19.87;10.77;;;;;;;22.27;47.36;95110.59;5067638;28;20676;-84
2022/10/19 06:47:38;;;;;;;19.02;11.35;;;;;;;22.88;45.95;95091.31;5071129;28;20719;-84
2022/10/19 06:50:06;;;;;;;21.67;10.93;;;;;;;23.61;44.72;95102.31;5070598;28;20202;-84
2022/10/19 06:52:33;;;;;;;21.95;11.32;;;;;;;24.24;43.61;95094.53;5067842;28;20210;-84
2022/10/19 06:55:00;;;;;;;22.83;11.23;;;;;;;24.74;42.88;95073.63;5064577;28;20277;-83
2022/10/19 06:57:27;;;;;;;17.27;11.30;;;;;;;25.39;41.58;95090.66;5068979;28;20201;-84
2022/10/19 06:59:56;;;;;;;19.40;10.57;;;;;;;25.72;40.89;95051.72;5069967;28;20217;-84
2022/10/19 07:02:23;;;;;;;22.35;11.27;;;;;;;26.46;39.94;95091.59;5066563;28;20577;-86
2022/10/19 07:04:49;;;;;;;23.33;10.43;;;;;;;26.75;39.41;95053.19;5068291;28;20302;-85
2022/10/19 07:07:16;;;;;;;22.30;11.52;;;;;;;27.11;38.60;95038.19;5070780;28;20198;-84
2022/10/19 07:09:43;;;;;;;16.55;10.18;;;;;;;27.72;37.70;95070.06;5067097;28;20186;-84
2022/10/19 07:12:10;;;;;;;17.25;10.43;;;;;;;28.18;37.22;95082.22;5068746;28;20276;-83
2022/10/19 07:14:38;;;;;;;14.82;9.52;;;;;;;28.36;36.51;95054.13;5073695;28;20190;-86
2022/10/19 07:17:07;;;;;;;16.20;9.50;;;;;;;28.76;36.22;95072.34;5074527;28;20277;-84
2022/10/19 07:19:34;;;;;;;25.75;10.38;;;;;;;29.13;35.54;95084.97;5072413;28;20305;-84
2022/10/19 07:22:01;;;;;;;11.80;8.82;;;;;;;29.39;35.10;95086.88;5072399;28;20226;-87
2022/10/19 07:24:28;;;;;;;17.23;9.18;;;;;;;29.58;34.43;95081.31;5072077;28;20194;-84
2022/10/19 07:26:56;;;;;;;16.90;10.45;;;;;;;29.82;34.32;95081.84;5071053;28;20194;-82
2022/10/19 07:29:23;;;;;;;17.10;9.30;;;;;;;29.95;33.52;95076.16;5077418;28;20237;-84
2022/10/19 07:31:49;;;;;;;18.63;9.50;;;;;;;30.19;33.45;95081.97;5072235;28;20623;-85
2022/10/19 07:34:18;;;;;;;16.25;8.82;;;;;;;30.14;33.01;95044.91;5074920;28;20649;-88
2022/10/19 07:36:46;;;;;;;13.88;8.20;;;;;;;30.46;32.72;95074.78;5076734;28;20590;-83
2022/10/19 07:39:15;;;;;;;17.92;8.48;;;;;;;30.61;32.64;95076.72;5071528;28;20528;-86
2022/10/19 07:41:43;;;;;;;13.18;8.15;;;;;;;30.69;32.29;95064.88;5070781;28;20231;-87
2022/10/19 07:44:10;;;;;;;14.43;8.40;;;;;;;30.76;32.21;95056.78;5078619;28;20198;-84
2022/10/19 07:46:37;;;;;;;13.30;9.05;;;;;;;30.82;32.16;95056.53;5076659;28;20186;-86
2022/10/19 07:49:20;;;;;;;16.13;8.60;;;;;;;30.75;31.71;95042.78;5077420;28;20268;-82
2022/10/19 07:51:52;;;;;;;18.50;8.80;;;;;;;30.89;31.69;95043.91;5077410;28;20198;-82
2022/10/19 07:54:19;;;;;;;13.55;9.52;;;;;;;30.96;31.57;95044.50;5074051;28;20194;-82
2022/10/19 07:56:46;;;;;;;18.83;10.10;;;;;;;30.95;31.52;95042.88;5077353;28;20214;-82
2022/10/19 07:59:15;;;;;;;13.13;9.93;;;;;;;30.93;31.37;95045.00;5084645;28;20209;-82
2022/10/19 08:04:22;;;;;;;17.30;10.32;;;;;;;30.68;32.02;95058.81;5081130;28;20205;-82
2022/10/19 08:06:50;;;;;;;18.60;11.30;;;;;;;30.39;32.32;95039.09;5086685;28;20195;-85
2022/10/19 08:09:19;;;;;;;18.83;9.85;;;;;;;30.04;31.98;95039.56;5082498;28;20293;-89
2022/10/19 08:11:46;;;;;;;20.65;10.60;;;;;;;29.60;32.35;95037.06;5072765;28;20201;-85
2022/10/19 08:14:12;;;;;;;24.83;10.85;;;;;;;29.19;32.44;95026.84;5069340;28;20277;-83
2022/10/19 08:16:43;;;;;;;19.15;10.48;;;;;;;28.87;32.33;95037.22;5069021;28;20572;-83
2022/10/19 08:19:11;;;;;;;15.15;9.60;;;;;;;28.52;32.34;95023.56;5068742;28;20234;-85
2022/10/19 08:21:40;;;;;;;16.65;9.80;;;;;;;28.10;32.94;95005.53;5070819;28;20202;-84
2022/10/19 08:24:08;;;;;;;19.33;10.52;;;;;;;27.87;32.97;95019.66;5068274;28;20186;-85
2022/10/19 08:26:37;;;;;;;19.60;9.77;;;;;;;27.65;32.92;95033.44;5071719;28;20194;-83
2022/10/19 08:29:06;;;;;;;19.30;9.65;;;;;;;27.30;33.06;95020.47;5071359;28;20630;-84
2022/10/19 08:31:33;;;;;;;16.52;9.50;;;;;;;27.03;33.10;95025.41;5074764;28;20194;-84
2022/10/19 08:34:00;;;;;;;18.35;9.38;;;;;;;26.53;33.19;94994.44;5082133;28;20602;-83
2022/10/19 08:36:30;;;;;;;14.13;8.93;;;;;;;26.45;33.52;95018.41;5072739;28;20663;-84
2022/10/19 08:38:57;;;;;;;14.70;9.10;;;;;;;25.89;33.78;94975.13;5072702;28;20214;-82
2022/10/19 08:41:32;;;;;;;13.82;9.15;;;;;;;25.84;33.76;94999.41;5065420;28;20198;-84
2022/10/19 08:44:24;;;;;;;13.57;8.27;;;;;;;25.68;34.12;95020.97;5066532;28;20194;-85
2022/10/19 08:46:59;;;;;;;14.68;9.23;;;;;;;25.43;34.36;95014.06;5071258;28;20194;-85
2022/10/19 08:49:28;;;;;;;17.08;9.02;;;;;;;25.23;34.36;95006.47;5066460;28;20221;-83
2022/10/19 08:51:59;;;;;;;15.07;8.80;;;;;;;24.83;34.24;94969.50;5068206;28;20198;-84
2022/10/19 08:54:35;;;;;;;14.48;8.43;;;;;;;24.86;34.34;95000.44;5069236;28;20187;-84
2022/10/19 08:57:15;;;;;;;13.98;7.70;;;;;;;24.69;34.36;95000.22;5070969;28;20186;-82
2022/10/19 08:59:49;;;;;;;13.02;7.82;;;;;;;24.38;34.41;94977.59;5071113;28;20195;-86
2022/10/19 09:02:21;;;;;;;12.50;7.50;;;;;;;24.14;34.74;94957.53;5066618;28;20212;-81
2022/10/19 09:04:54;;;;;;;10.15;6.55;;;;;;;24.11;35.03;94968.41;5073322;28;20584;-82
2022/10/19 09:07:26;;;;;;;11.45;5.82;;;;;;;23.97;35.02;94972.94;5072769;28;20204;-83
2022/10/19 09:09:57;;;;;;;10.85;6.78;;;;;;;23.99;35.23;94992.59;5070234;28;20213;-83
2022/10/19 09:12:45;;;;;;;10.95;6.68;;;;;;;23.89;35.12;94989.69;5061839;28;20206;-83
2022/10/19 09:15:15;;;;;;;9.77;5.85;;;;;;;23.79;35.37;94989.34;5069522;28;20273;-85
2022/10/19 09:17:43;;;;;;;6.82;5.28;;;;;;;23.69;35.41;94991.63;5070117;28;20210;-82
2022/10/19 09:20:17;;;;;;;10.75;5.90;;;;;;;23.56;35.73;94984.66;5063160;28;20230;-88
2022/10/19 09:22:45;;;;;;;9.63;5.78;;;;;;;23.32;35.84;94965.34;5067800;28;20193;-81
2022/10/19 09:25:18;;;;;;;7.93;5.38;;;;;;;23.45;35.76;94990.56;5063461;28;20190;-82
2022/10/19 09:27:49;;;;;;;8.63;5.55;;;;;;;23.38;36.08;94984.56;5071150;28;20203;-84
2022/10/19 09:30:19;;;;;;;8.45;5.15;;;;;;;23.23;35.99;94974.44;5060651;28;20221;-84
2022/10/19 09:32:47;;;;;;;7.60;5.00;;;;;;;23.25;36.13;94990.66;5065586;28;20203;-82
2022/10/19 09:35:24;;;;;;;8.73;4.72;;;;;;;23.21;36.10;94992.09;5070217;28;20190;-82
2022/10/19 09:37:51;;;;;;;7.13;4.78;;;;;;;22.99;35.93;94963.69;5072433;28;20588;-81
2022/10/19 09:40:21;;;;;;;9.35;4.93;;;;;;;22.93;36.49;94959.31;5071848;28;20191;-81
2022/10/19 09:42:55;;;;;;;6.93;4.60;;;;;;;22.86;36.31;94950.69;5074950;28;20194;-81
2022/10/19 09:45:33;;;;;;;7.38;4.22;;;;;;;23.03;36.36;94988.34;5068915;28;20197;-82
2022/10/19 09:48:02;;;;;;;6.20;4.70;;;;;;;22.98;36.59;94988.19;5067098;28;20216;-83
2022/10/19 09:50:31;;;;;;;7.43;4.32;;;;;;;22.81;36.77;94966.16;5067509;28;20208;-83
2022/10/19 09:52:59;;;;;;;6.47;4.03;;;;;;;22.89;36.55;94980.78;5067515;28;20186;-83
2022/10/19 09:55:36;;;;;;;6.68;4.53;;;;;;;22.88;36.59;94979.94;5064270;28;20210;-83
2022/10/19 09:58:15;;;;;;;6.40;4.20;;;;;;;22.84;36.87;94970.13;5066095;28;20657;-81
2022/10/19 10:00:44;;;;;;;4.43;4.00;;;;;;;22.75;36.83;94965.19;5066261;28;20225;-81
2022/10/19 10:03:24;;;;;;;5.10;4.28;;;;;;;22.79;36.97;94970.75;5068931;28;20273;-79
2022/10/19 10:05:51;;;;;;;6.55;4.72;;;;;;;22.77;37.06;94976.19;5069825;28;20744;-84
2022/10/19 10:08:21;;;;;;;6.18;4.05;;;;;;;22.74;36.77;94963.56;5068820;28;20543;-85
2022/10/19 10:10:56;;;;;;;6.60;3.85;;;;;;;22.71;37.16;94958.78;5067351;28;20213;-83
2022/10/19 10:13:26;;;;;;;6.47;3.90;;;;;;;22.77;37.07;94959.75;5063895;28;20208;-87
2022/10/19 10:15:57;;;;;;;4.80;3.85;;;;;;;22.66;36.98;94945.53;5069952;28;20190;-84
2022/10/19 10:18:26;;;;;;;4.22;3.55;;;;;;;22.65;37.11;94943.13;5071217;28;20639;-86
2022/10/19 10:21:02;;;;;;;5.88;4.07;;;;;;;22.69;36.88;94939.91;5067930;28;20194;-85
2022/10/19 10:23:33;;;;;;;4.10;3.70;;;;;;;22.74;36.93;94940.09;5069553;28;20201;-84
2022/10/19 10:26:01;;;;;;;5.72;4.18;;;;;;;22.74;36.98;94940.09;5066863;28;20191;-80
2022/10/19 10:28:30;;;;;;;5.22;3.95;;;;;;;22.42;36.90;94881.88;5070700;28;20213;-83
2022/10/19 10:31:03;;;;;;;4.78;3.60;;;;;;;22.75;36.98;94925.22;5070830;28;20181;-79
2022/10/19 10:33:32;;;;;;;4.50;3.90;;;;;;;22.75;37.08;94926.06;5076925;28;20196;-80
2022/10/19 10:36:03;;;;;;;5.47;4.43;;;;;;;22.60;37.17;94896.84;5077581;28;20283;-80
2022/10/19 10:38:33;;;;;;;5.90;3.60;;;;;;;22.75;37.17;94923.44;5074908;28;20230;-81
2022/10/19 10:41:03;;;;;;;5.60;3.22;;;;;;;22.73;37.27;94903.78;5076060;28;20193;-82
2022/10/19 10:43:33;;;;;;;5.88;3.40;;;;;;;22.67;37.24;94897.63;5073219;28;20205;-80
2022/10/19 10:46:05;;;;;;;5.85;3.58;;;;;;;22.75;37.28;94904.38;5064199;28;20285;-79
2022/10/19 10:48:36;;;;;;;4.85;3.50;;;;;;;22.76;37.21;94903.38;5070797;28;20193;-81
2022/10/19 10:51:08;;;;;;;3.65;3.28;;;;;;;22.76;37.12;94900.78;5069545;28;20279;-80
2022/10/19 10:53:37;;;;;;;5.75;3.90;;;;;;;22.74;37.35;94902.78;5070272;28;20201;-81
2022/10/19 10:56:17;;;;;;;4.68;4.03;;;;;;;22.71;37.41;94885.75;5070002;28;20607;-77
2022/10/19 10:58:50;;;;;;;4.65;3.63;;;;;;;22.71;37.11;94877.13;5074409;28;20213;-80
2022/10/19 11:01:21;;;;;;;5.95;3.95;;;;;;;22.73;37.23;94888.94;5071065;28;20272;-79
2022/10/19 11:03:55;;;;;;;5.82;3.50;;;;;;;22.73;37.20;94878.50;5072678;28;20186;-79
2022/10/19 11:06:26;;;;;;;10.95;3.90;;;;;;;22.72;37.20;94873.53;5068219;28;20190;-80
2022/10/19 11:09:03;;;;;;;6.55;3.50;;;;;;;22.71;37.08;94877.13;5065011;28;20275;-82
2022/10/19 11:11:35;;;;;;;5.85;3.45;;;;;;;22.70;37.17;94876.31;5070326;28;20217;-82
2022/10/19 11:14:26;;;;;;;4.28;3.45;;;;;;;22.70;37.16;94865.09;5070194;28;20194;-81
2022/10/19 11:16:55;;;;;;;4.45;3.58;;;;;;;22.70;37.13;94871.09;5061684;28;20198;-80
2022/10/19 11:19:26;;;;;;;5.75;3.60;;;;;;;22.59;37.15;94843.09;5061117;28;20313;-82
2022/10/19 11:22:01;;;;;;;4.20;2.97;;;;;;;22.64;37.22;94858.13;5069358;28;20687;-79
2022/10/19 11:24:38;;;;;;;3.80;3.35;;;;;;;22.68;37.23;94862.69;5081819;28;20186;-82
2022/10/19 11:27:19;;;;;;;6.20;3.75;;;;;;;22.62;37.14;94850.47;5080512;28;20282;-83
2022/10/19 11:30:02;;;;;;;4.50;3.50;;;;;;;22.66;37.07;94856.09;5080551;28;20253;-84
2022/10/19 11:32:38;;;;;;;3.60;3.00;;;;;;;22.41;36.98;94809.91;5081172;28;20191;-83
2022/10/19 11:35:29;;;;;;;5.88;3.78;;;;;;;22.65;37.00;94854.50;5068735;28;20198;-83
2022/10/19 11:38:07;;;;;;;5.00;3.45;;;;;;;22.58;37.02;94838.88;5065945;28;20203;-84
2022/10/19 11:40:40;;;;;;;5.32;3.53;;;;;;;22.52;37.18;94824.06;5070847;28;20191;-86
2022/10/19 11:43:15;;;;;;;5.80;3.47;;;;;;;22.62;37.01;94837.44;5067110;28;20202;-84
2022/10/19 11:45:51;;;;;;;5.13;3.97;;;;;;;22.62;36.74;94839.25;5063711;28;20265;-84
2022/10/19 11:48:34;;;;;;;5.57;3.25;;;;;;;22.49;37.06;94819.28;5068777;28;20571;-83
2022/10/19 11:51:06;;;;;;;4.45;3.60;;;;;;;22.60;36.89;94829.06;5068111;28;20248;-82
2022/10/19 11:53:42;;;;;;;3.40;3.10;;;;;;;22.33;36.92;94784.09;5064017;28;20237;-84